Time;durP1;ratioP1;P1;durP2;ratioP2;P2;SDS_P1;SDS_P2;PMS_P1;PMS_P2;Temp;Humidity;BMP_temperature;BMP_pressure;BME280_temperature;BME280_humidity;BME280_pressure;Samples;Min_cycle;Max_cycle;Signal;HPM_P1;HPM_P2
2022/03/17 00:02:04;;;;;;;23.27;20.20;;;13.00;86.70;;;;;;5053245;28;20021;-80
2022/03/17 00:04:31;;;;;;;26.08;20.45;;;13.10;86.80;;;;;;5053336;28;20079;-80
2022/03/17 00:06:57;;;;;;;26.27;22.48;;;13.00;86.80;;;;;;5053209;28;20049;-79
2022/03/17 00:09:23;;;;;;;26.20;21.65;;;13.10;87.00;;;;;;5053843;28;20396;-82
2022/03/17 00:11:48;;;;;;;24.65;21.75;;;13.10;86.80;;;;;;5053782;28;20028;-81
2022/03/17 00:14:14;;;;;;;25.25;21.67;;;13.10;86.90;;;;;;5053032;28;20113;-81
2022/03/17 00:16:40;;;;;;;26.00;21.10;;;13.10;87.00;;;;;;5053094;28;20017;-81
2022/03/17 00:19:07;;;;;;;27.35;22.30;;;13.10;87.30;;;;;;5053333;28;20399;-81
2022/03/17 00:21:37;;;;;;;25.33;21.92;;;13.00;87.50;;;;;;5053181;28;20388;-81
2022/03/17 00:24:07;;;;;;;27.08;22.02;;;13.00;87.90;;;;;;5052975;28;20529;-80
2022/03/17 00:26:33;;;;;;;25.13;20.80;;;13.00;87.90;;;;;;5053028;28;20033;-80
2022/03/17 00:28:58;;;;;;;31.85;22.92;;;13.00;88.30;;;;;;5052629;28;20043;-81
2022/03/17 00:31:24;;;;;;;28.02;22.95;;;13.00;88.30;;;;;;5053234;28;20032;-81
2022/03/17 00:33:49;;;;;;;30.52;23.48;;;12.90;88.80;;;;;;5053170;28;20029;-80
2022/03/17 00:36:15;;;;;;;28.38;22.83;;;12.90;89.00;;;;;;5053820;28;20445;-80
2022/03/17 00:38:41;;;;;;;27.23;22.58;;;12.90;89.00;;;;;;5059512;28;20488;-81
2022/03/17 00:41:06;;;;;;;27.70;22.92;;;12.90;89.10;;;;;;5053135;28;20025;-81
2022/03/17 00:43:34;;;;;;;26.52;22.40;;;12.90;89.40;;;;;;5052731;28;20464;-81
2022/03/17 00:46:00;;;;;;;32.13;24.60;;;12.90;89.30;;;;;;5052781;28;20384;-81
2022/03/17 00:48:26;;;;;;;29.48;22.83;;;12.90;89.50;;;;;;5052344;28;20036;-80
2022/03/17 00:50:51;;;;;;;27.27;23.15;;;12.80;89.70;;;;;;5052953;28;20028;-80
2022/03/17 00:53:17;;;;;;;27.23;22.55;;;12.90;90.00;;;;;;5052718;28;20024;-82
2022/03/17 00:55:42;;;;;;;28.92;22.83;;;12.80;90.00;;;;;;5052695;28;20025;-81
2022/03/17 00:58:08;;;;;;;29.95;23.48;;;12.90;90.10;;;;;;5052595;28;20104;-81
2022/03/17 01:00:34;;;;;;;27.75;22.38;;;12.90;90.40;;;;;;5052856;28;20036;-81
2022/03/17 01:03:01;;;;;;;29.25;24.30;;;12.80;90.10;;;;;;5052573;28;20028;-81
2022/03/17 01:05:26;;;;;;;28.58;23.27;;;12.80;90.10;;;;;;5052790;28;20033;-80
2022/03/17 01:07:53;;;;;;;28.92;24.27;;;12.90;90.20;;;;;;5052499;28;20373;-81
2022/03/17 01:10:19;;;;;;;27.42;23.63;;;12.80;90.20;;;;;;5052614;28;20036;-80
2022/03/17 01:12:46;;;;;;;30.85;23.25;;;12.80;90.30;;;;;;5052551;28;20021;-80
2022/03/17 01:15:13;;;;;;;29.67;23.52;;;12.70;90.30;;;;;;5053200;28;20366;-81
2022/03/17 01:17:39;;;;;;;30.35;23.77;;;12.80;90.40;;;;;;5056325;28;20052;-80
2022/03/17 01:20:06;;;;;;;31.42;23.75;;;12.80;90.30;;;;;;5056166;28;20419;-81
2022/03/17 01:22:33;;;;;;;28.95;24.50;;;12.70;90.40;;;;;;5056023;28;20472;-80
2022/03/17 01:24:58;;;;;;;32.90;25.27;;;12.80;90.50;;;;;;5056050;28;20108;-81
2022/03/17 01:27:25;;;;;;;29.30;24.58;;;12.80;90.50;;;;;;5055941;28;20463;-81
2022/03/17 01:29:52;;;;;;;29.52;23.98;;;12.70;90.50;;;;;;5055970;28;20076;-81
2022/03/17 01:32:18;;;;;;;27.40;23.30;;;12.70;90.60;;;;;;5055865;28;20025;-81
2022/03/17 01:34:44;;;;;;;30.67;24.75;;;12.70;90.70;;;;;;5055987;28;20055;-81
2022/03/17 01:37:09;;;;;;;30.55;24.38;;;12.70;90.70;;;;;;5055913;28;20483;-81
2022/03/17 01:39:36;;;;;;;30.00;23.63;;;12.70;90.80;;;;;;5056052;28;20021;-81
2022/03/17 01:42:04;;;;;;;31.25;23.70;;;12.70;90.90;;;;;;5055792;28;20498;-82
2022/03/17 01:44:29;;;;;;;33.20;23.67;;;12.60;90.90;;;;;;5055817;28;20029;-82
2022/03/17 01:49:40;;;;;;;30.17;23.73;;;12.70;90.80;;;;;;5055431;28;20071;-82
2022/03/17 01:52:06;;;;;;;26.60;22.13;;;12.80;90.80;;;;;;5055433;28;20108;-82
2022/03/17 01:54:33;;;;;;;28.85;22.65;;;12.80;90.90;;;;;;5055720;28;20029;-82
2022/03/17 01:56:59;;;;;;;27.25;22.17;;;12.80;90.80;;;;;;5055335;28;20490;-82
2022/03/17 01:59:26;;;;;;;25.13;21.63;;;12.80;90.90;;;;;;5055748;28;20029;-81
2022/03/17 02:01:54;;;;;;;30.48;22.33;;;12.80;90.80;;;;;;5055422;28;20025;-81
2022/03/17 02:04:20;;;;;;;32.38;23.17;;;12.90;90.90;;;;;;5055159;28;20021;-81
2022/03/17 02:06:46;;;;;;;26.30;21.50;;;12.90;90.90;;;;;;5055104;28;20037;-80
2022/03/17 02:09:12;;;;;;;27.13;21.58;;;12.90;90.90;;;;;;5055200;28;20060;-80
2022/03/17 02:14:23;;;;;;;26.13;21.20;;;13.00;90.90;;;;;;5055131;28;20115;-80
2022/03/17 02:16:52;;;;;;;27.15;20.73;;;13.00;90.90;;;;;;5055264;28;20025;-81
2022/03/17 02:19:20;;;;;;;25.42;20.00;;;13.00;91.00;;;;;;5054886;28;20021;-81
2022/03/17 02:21:46;;;;;;;26.02;19.92;;;13.00;91.00;;;;;;5055126;28;20109;-81
2022/03/17 02:27:02;;;;;;;23.77;19.35;;;13.00;91.10;;;;;;5055003;28;20040;-81
2022/03/17 02:29:27;;;;;;;25.75;19.25;;;13.00;91.10;;;;;;5055047;28;20060;-80
2022/03/17 02:31:53;;;;;;;24.77;18.60;;;13.10;91.30;;;;;;5054705;28;20041;-81
2022/03/17 02:34:20;;;;;;;23.23;19.05;;;13.00;91.40;;;;;;5054716;28;20384;-80
2022/03/17 02:36:50;;;;;;;26.63;19.40;;;13.00;91.70;;;;;;5054631;28;20091;-81
2022/03/17 02:39:18;;;;;;;28.73;19.90;;;12.90;91.80;;;;;;5054758;28;20033;-80
2022/03/17 02:41:43;;;;;;;25.85;18.90;;;12.90;92.10;;;;;;5054855;28;20028;-80
2022/03/17 02:44:10;;;;;;;26.35;18.20;;;12.90;92.20;;;;;;5054308;28;20434;-80
2022/03/17 02:46:35;;;;;;;27.48;19.33;;;12.90;92.30;;;;;;5054718;28;20055;-80
2022/03/17 02:49:01;;;;;;;26.15;19.52;;;12.90;92.40;;;;;;5054281;28;20484;-80
2022/03/17 02:51:26;;;;;;;24.30;19.95;;;12.90;92.60;;;;;;5054753;28;20055;-80
2022/03/17 02:53:52;;;;;;;24.42;19.80;;;12.90;92.80;;;;;;5054384;28;20051;-79
2022/03/17 02:56:18;;;;;;;26.55;20.05;;;12.90;92.90;;;;;;5054602;28;20063;-80
2022/03/17 02:58:43;;;;;;;27.40;20.17;;;12.80;93.10;;;;;;5054015;28;20028;-80
2022/03/17 03:01:09;;;;;;;28.33;20.48;;;12.80;93.30;;;;;;5054429;28;20035;-79
2022/03/17 03:03:35;;;;;;;24.38;19.42;;;12.80;93.50;;;;;;5054379;28;20025;-80
2022/03/17 03:06:01;;;;;;;25.25;19.95;;;12.80;93.60;;;;;;5054540;28;20021;-80
2022/03/17 03:08:27;;;;;;;29.42;20.63;;;12.80;93.70;;;;;;5053838;28;20500;-79
2022/03/17 03:10:53;;;;;;;27.25;19.92;;;12.80;93.70;;;;;;5054132;28;20029;-80
2022/03/17 03:13:19;;;;;;;29.25;20.42;;;12.80;93.80;;;;;;5053970;28;20021;-79
2022/03/17 03:15:44;;;;;;;46.55;22.08;;;12.80;94.00;;;;;;5054211;28;20053;-79
2022/03/17 03:18:10;;;;;;;29.92;21.23;;;12.80;94.40;;;;;;5054157;28;20100;-80
2022/03/17 03:20:37;;;;;;;33.80;22.13;;;12.80;94.70;;;;;;5053939;28;20078;-79
2022/03/17 03:23:03;;;;;;;32.33;23.88;;;12.70;95.00;;;;;;5053643;28;20025;-80
2022/03/17 03:25:29;;;;;;;32.78;23.15;;;12.70;95.30;;;;;;5053757;28;20033;-80
2022/03/17 03:27:54;;;;;;;30.15;22.95;;;12.70;96.20;;;;;;5053686;28;20083;-79
2022/03/17 03:30:20;;;;;;;35.33;23.88;;;12.60;96.80;;;;;;5053982;28;20025;-80
2022/03/17 03:32:47;;;;;;;34.97;24.92;;;12.50;97.50;;;;;;5053898;28;20028;-80
2022/03/17 03:37:58;;;;;;;33.00;23.70;;;12.50;98.70;;;;;;5053477;28;20123;-81
2022/03/17 03:40:25;;;;;;;39.33;26.15;;;12.40;99.00;;;;;;5053564;28;20422;-81
2022/03/17 03:42:51;;;;;;;39.45;25.90;;;12.40;99.80;;;;;;5054044;28;20064;-81
2022/03/17 03:45:16;;;;;;;36.03;26.10;;;12.40;99.90;;;;;;5053469;28;20071;-81
2022/03/17 03:47:42;;;;;;;38.40;27.55;;;12.40;99.90;;;;;;5053222;28;20472;-81
2022/03/17 03:50:09;;;;;;;38.47;26.80;;;12.40;99.90;;;;;;5053539;28;20029;-80
2022/03/17 03:52:34;;;;;;;34.55;26.40;;;12.30;99.90;;;;;;5053524;28;20024;-81
2022/03/17 03:55:00;;;;;;;34.95;24.00;;;12.30;99.90;;;;;;5053288;28;20388;-81
2022/03/17 03:57:26;;;;;;;32.13;21.90;;;12.20;99.90;;;;;;5053235;28;20028;-80
2022/03/17 03:59:55;;;;;;;28.23;20.00;;;12.20;99.90;;;;;;5053217;28;20029;-80
2022/03/17 04:02:21;;;;;;;22.50;17.05;;;12.20;99.90;;;;;;5053530;28;20034;-80
2022/03/17 04:04:46;;;;;;;20.02;15.73;;;12.10;99.90;;;;;;5053328;28;20028;-81
2022/03/17 04:07:12;;;;;;;18.40;14.52;;;12.00;99.90;;;;;;5052689;28;20029;-81
2022/03/17 04:09:42;;;;;;;15.80;12.65;;;12.00;99.90;;;;;;5053329;28;20060;-80
2022/03/17 04:12:10;;;;;;;15.80;12.07;;;11.80;99.90;;;;;;5053340;28;20067;-81
2022/03/17 04:14:36;;;;;;;13.77;11.75;;;11.70;99.90;;;;;;5052810;28;20470;-80
2022/03/17 04:17:02;;;;;;;13.52;10.75;;;11.70;99.90;;;;;;5053339;28;20052;-81
2022/03/17 04:19:28;;;;;;;12.77;10.57;;;11.70;99.90;;;;;;5053227;28;20451;-81
2022/03/17 04:21:54;;;;;;;10.27;8.07;;;11.70;99.90;;;;;;5053136;28;20045;-81
2022/03/17 04:24:23;;;;;;;9.07;7.40;;;11.60;99.90;;;;;;5053051;28;20488;-81
2022/03/17 04:26:49;;;;;;;5.68;4.97;;;11.50;99.90;;;;;;5053093;28;20029;-80
2022/03/17 04:29:15;;;;;;;6.35;4.03;;;11.40;99.90;;;;;;5053136;28;20115;-79
2022/03/17 04:31:43;;;;;;;4.78;3.40;;;11.40;99.90;;;;;;5052833;28;20035;-79
2022/03/17 04:34:09;;;;;;;5.10;3.10;;;11.40;99.90;;;;;;5052885;28;20472;-80
2022/03/17 04:36:36;;;;;;;3.35;2.47;;;11.40;99.90;;;;;;5052721;28;20021;-81
2022/03/17 04:39:03;;;;;;;4.85;3.55;;;11.30;99.90;;;;;;5053066;28;20025;-82
2022/03/17 04:41:29;;;;;;;4.57;2.60;;;11.30;99.90;;;;;;5052885;28;20017;-82
2022/03/17 04:43:55;;;;;;;3.22;2.20;;;11.30;99.90;;;;;;5052910;28;20021;-82
2022/03/17 04:46:21;;;;;;;3.97;2.20;;;11.30;99.90;;;;;;5052841;28;20033;-82
2022/03/17 04:48:47;;;;;;;3.05;2.28;;;11.20;99.90;;;;;;5052858;28;20040;-82
2022/03/17 04:51:13;;;;;;;4.20;2.03;;;11.20;99.90;;;;;;5055020;28;20031;-81
2022/03/17 04:53:39;;;;;;;4.30;2.47;;;11.00;99.90;;;;;;5056546;28;20029;-82
2022/03/17 04:56:14;;;;;;;5.05;2.70;;;11.00;99.90;;;;;;5056833;28;20506;-81
2022/03/17 04:58:41;;;;;;;4.05;2.97;;;10.90;99.90;;;;;;5056466;28;20484;-81
2022/03/17 05:01:08;;;;;;;7.85;3.45;;;10.80;99.90;;;;;;5056567;28;20021;-80
2022/03/17 05:03:34;;;;;;;7.47;3.50;;;10.80;99.90;;;;;;5056586;28;20035;-84
2022/03/17 05:06:01;;;;;;;8.48;4.30;;;10.70;99.80;;;;;;5056295;28;20048;-84
2022/03/17 05:08:27;;;;;;;11.20;4.82;;;10.70;99.90;;;;;;5056250;28;20037;-85
2022/03/17 05:10:53;;;;;;;7.80;4.65;;;10.70;99.90;;;;;;5056546;28;20408;-85
2022/03/17 05:13:20;;;;;;;10.52;5.38;;;10.70;99.90;;;;;;5056367;28;20388;-84
2022/03/17 05:15:47;;;;;;;10.45;4.78;;;10.60;99.90;;;;;;5056206;28;20534;-85
2022/03/17 05:18:16;;;;;;;10.38;5.43;;;10.60;99.90;;;;;;5056288;28;20025;-85
2022/03/17 05:20:41;;;;;;;9.60;5.10;;;10.60;99.90;;;;;;5056171;28;20029;-84
2022/03/17 05:23:08;;;;;;;11.95;5.55;;;10.60;99.90;;;;;;5056335;28;20529;-84
2022/03/17 05:25:34;;;;;;;10.73;5.40;;;10.70;99.90;;;;;;5056522;28;20086;-82
2022/03/17 05:28:00;;;;;;;12.35;5.97;;;10.60;99.90;;;;;;5056635;28;20029;-84
2022/03/17 05:30:26;;;;;;;10.68;5.95;;;10.70;99.80;;;;;;5056905;28;20069;-82
2022/03/17 05:32:52;;;;;;;11.57;6.45;;;10.80;99.90;;;;;;5056472;28;20029;-81
2022/03/17 05:35:18;;;;;;;15.40;6.38;;;10.70;99.50;;;;;;5055897;28;20487;-84
2022/03/17 05:37:43;;;;;;;15.88;6.72;;;10.60;99.40;;;;;;5055835;28;20479;-85
2022/03/17 05:40:15;;;;;;;9.82;5.20;;;10.60;99.50;;;;;;5055772;28;20040;-83
2022/03/17 05:42:49;;;;;;;8.30;4.40;;;10.50;99.20;;;;;;5056223;28;20017;-85
2022/03/17 05:45:16;;;;;;;12.90;3.95;;;10.40;99.20;;;;;;5056010;28;20075;-84
2022/03/17 05:47:47;;;;;;;10.77;3.25;;;10.50;99.00;;;;;;5055331;28;20021;-84
2022/03/17 05:50:16;;;;;;;9.73;3.10;;;10.40;98.60;;;;;;5055634;28;20029;-84
2022/03/17 05:52:43;;;;;;;10.82;2.90;;;10.40;98.20;;;;;;5055322;28;20025;-84
2022/03/17 05:55:11;;;;;;;11.82;2.80;;;10.30;98.10;;;;;;5055304;28;20029;-85
2022/03/17 05:57:37;;;;;;;9.02;3.30;;;10.30;98.20;;;;;;5054503;28;20021;-85
2022/03/17 06:00:04;;;;;;;17.00;3.15;;;10.30;98.20;;;;;;5053597;28;20025;-86
2022/03/17 06:02:30;;;;;;;11.35;2.40;;;10.30;98.20;;;;;;5053943;28;20031;-85
2022/03/17 06:04:56;;;;;;;17.77;2.50;;;10.20;98.10;;;;;;5054939;28;20446;-86
2022/03/17 06:07:21;;;;;;;10.48;2.15;;;10.10;98.10;;;;;;5054843;28;20139;-86
2022/03/17 06:09:47;;;;;;;10.10;2.40;;;10.10;98.10;;;;;;5053473;28;20056;-86
2022/03/17 06:12:15;;;;;;;13.85;2.10;;;10.20;98.10;;;;;;5054667;28;20036;-85
2022/03/17 06:14:41;;;;;;;11.95;2.40;;;10.20;97.90;;;;;;5051859;28;20104;-84
2022/03/17 06:17:07;;;;;;;11.07;2.08;;;10.10;98.00;;;;;;5055058;28;20121;-81
2022/03/17 06:19:32;;;;;;;9.77;1.88;;;10.20;98.00;;;;;;5054899;28;20029;-80
2022/03/17 06:21:58;;;;;;;10.30;1.85;;;10.10;97.80;;;;;;5054969;28;20024;-83
2022/03/17 06:24:25;;;;;;;13.45;1.98;;;10.10;98.00;;;;;;5055586;28;20033;-82
2022/03/17 06:26:53;;;;;;;10.40;1.92;;;10.30;98.10;;;;;;5054660;28;20380;-79
2022/03/17 06:29:19;;;;;;;11.68;2.40;;;10.30;97.70;;;;;;5054645;28;20095;-80
2022/03/17 06:31:44;;;;;;;10.45;1.27;;;10.30;97.20;;;;;;5054599;28;20025;-79
2022/03/17 06:34:10;;;;;;;7.60;1.48;;;10.30;97.10;;;;;;5054734;28;20027;-80
2022/03/17 06:36:35;;;;;;;12.23;1.45;;;10.20;97.10;;;;;;5054762;28;20025;-79
2022/03/17 06:39:01;;;;;;;6.75;1.00;;;10.10;97.30;;;;;;5054737;28;20020;-79
2022/03/17 06:41:26;;;;;;;7.57;1.65;;;10.10;97.50;;;;;;5054516;28;20419;-79
2022/03/17 06:43:52;;;;;;;6.97;0.95;;;10.10;97.50;;;;;;5054713;28;20036;-79
2022/03/17 06:46:17;;;;;;;7.93;1.20;;;10.10;97.50;;;;;;5054789;28;20104;-78
2022/03/17 06:48:43;;;;;;;6.53;1.50;;;10.10;97.40;;;;;;5054422;28;20033;-80
2022/03/17 06:51:11;;;;;;;8.68;1.58;;;10.30;97.50;;;;;;5053911;28;20056;-79
2022/03/17 06:53:37;;;;;;;14.02;1.50;;;10.30;97.30;;;;;;5054112;28;20025;-78
2022/03/17 06:56:03;;;;;;;10.65;1.45;;;10.40;97.10;;;;;;5054266;28;20047;-78
2022/03/17 06:58:28;;;;;;;12.45;2.78;;;10.40;96.80;;;;;;5054238;28;20028;-78
2022/03/17 07:00:54;;;;;;;10.93;1.20;;;10.40;96.50;;;;;;5054485;28;20025;-79
2022/03/17 07:03:19;;;;;;;11.75;1.33;;;10.40;96.50;;;;;;5054502;28;20029;-80
2022/03/17 07:05:45;;;;;;;15.50;1.45;;;10.20;96.70;;;;;;5054243;28;20537;-80
2022/03/17 07:08:11;;;;;;;9.65;1.15;;;10.20;96.70;;;;;;5053001;28;20045;-82
2022/03/17 07:10:36;;;;;;;12.27;1.60;;;10.20;96.80;;;;;;5053411;28;20025;-83
2022/03/17 07:13:02;;;;;;;10.65;1.63;;;10.20;96.80;;;;;;5051077;28;20464;-79
2022/03/17 07:15:28;;;;;;;9.98;1.25;;;10.20;96.80;;;;;;5052780;28;20736;-81
2022/03/17 07:17:54;;;;;;;11.60;1.75;;;10.20;96.90;;;;;;5053382;28;20029;-80
2022/03/17 07:20:20;;;;;;;10.82;1.70;;;10.20;96.90;;;;;;5052903;28;20036;-82
2022/03/17 07:22:48;;;;;;;12.25;1.52;;;10.30;96.90;;;;;;5052013;28;20364;-79
2022/03/17 07:25:14;;;;;;;10.65;1.50;;;10.40;96.60;;;;;;5052375;28;20040;-78
2022/03/17 07:27:43;;;;;;;15.43;2.05;;;10.40;96.50;;;;;;5051833;28;20087;-82
2022/03/17 07:30:20;;;;;;;15.98;1.67;;;10.30;96.50;;;;;;5051211;28;20473;-83
2022/03/17 07:32:52;;;;;;;13.23;2.00;;;10.30;96.60;;;;;;5050549;28;20028;-83
2022/03/17 07:35:18;;;;;;;15.40;1.93;;;10.30;96.70;;;;;;5045580;28;20033;-80
2022/03/17 07:37:45;;;;;;;13.95;2.15;;;10.30;96.60;;;;;;5051609;28;20458;-83
2022/03/17 07:40:12;;;;;;;9.80;1.33;;;10.30;96.40;;;;;;5051561;28;20435;-81
2022/03/17 07:42:37;;;;;;;11.98;1.90;;;10.30;96.30;;;;;;5052463;28;20025;-83
2022/03/17 07:45:04;;;;;;;12.35;1.33;;;10.30;96.30;;;;;;5050778;28;20361;-83
2022/03/17 07:47:32;;;;;;;12.88;2.65;;;10.10;95.50;;;;;;5051531;28;20025;-83
2022/03/17 07:49:59;;;;;;;15.48;2.17;;;10.10;95.60;;;;;;5050978;28;20480;-83
2022/03/17 07:52:24;;;;;;;9.20;1.13;;;10.30;95.40;;;;;;5051231;28;20040;-82
2022/03/17 07:54:50;;;;;;;7.40;1.25;;;10.40;95.30;;;;;;5052231;28;20025;-80
2022/03/17 07:57:15;;;;;;;11.02;0.60;;;10.50;94.80;;;;;;5051817;28;20051;-84
2022/03/17 07:59:42;;;;;;;10.48;0.90;;;10.60;94.80;;;;;;5052422;28;20033;-82
2022/03/17 08:02:07;;;;;;;11.73;1.60;;;10.70;94.10;;;;;;5051397;28;20156;-83
2022/03/17 08:04:33;;;;;;;5.13;0.70;;;10.80;93.00;;;;;;5052288;28;20416;-83
2022/03/17 08:07:01;;;;;;;8.48;0.70;;;10.80;93.00;;;;;;5052105;28;20032;-79
2022/03/17 08:09:27;;;;;;;11.20;0.85;;;10.80;92.30;;;;;;5052304;28;20452;-79
2022/03/17 08:11:53;;;;;;;7.55;0.60;;;10.70;92.10;;;;;;5052097;28;20423;-81
2022/03/17 08:14:18;;;;;;;7.70;0.68;;;10.70;92.10;;;;;;5052063;28;20028;-81
2022/03/17 08:16:44;;;;;;;11.60;1.10;;;10.70;92.10;;;;;;5052580;28;20024;-80
2022/03/17 08:19:11;;;;;;;7.93;1.42;;;10.80;91.90;;;;;;5051881;28;20555;-81
2022/03/17 08:21:38;;;;;;;8.75;0.85;;;10.70;91.90;;;;;;5049286;28;20032;-80
2022/03/17 08:24:04;;;;;;;16.95;1.20;;;10.80;91.70;;;;;;5051634;28;20083;-79
2022/03/17 08:26:29;;;;;;;6.53;1.02;;;10.70;91.30;;;;;;5055541;28;20021;-79
2022/03/17 08:28:55;;;;;;;12.73;1.60;;;10.70;91.70;;;;;;5055489;28;20384;-80
2022/03/17 08:31:20;;;;;;;9.93;1.08;;;10.70;91.50;;;;;;5055533;28;20021;-81
2022/03/17 08:33:46;;;;;;;9.65;1.00;;;10.60;91.30;;;;;;5056293;28;20043;-80
2022/03/17 08:36:11;;;;;;;10.20;1.05;;;10.60;91.20;;;;;;5055347;28;20076;-80
2022/03/17 08:38:37;;;;;;;10.98;1.20;;;10.60;91.20;;;;;;5055195;28;20025;-79
2022/03/17 08:41:02;;;;;;;9.10;1.13;;;10.60;91.00;;;;;;5055709;28;20384;-79
2022/03/17 08:43:28;;;;;;;12.57;0.80;;;10.60;90.90;;;;;;5050605;28;20044;-78
2022/03/17 08:51:25;;;;;;;7.35;0.60;;;10.80;90.70;;;;;;5052104;28;20032;-79
2022/03/17 08:53:51;;;;;;;11.30;1.25;;;10.90;90.70;;;;;;5052073;28;20029;-75
2022/03/17 08:56:16;;;;;;;11.98;1.13;;;11.00;90.60;;;;;;5054542;28;20029;-75
2022/03/17 08:58:42;;;;;;;8.38;0.82;;;11.10;89.70;;;;;;5055440;28;20112;-80
2022/03/17 09:01:08;;;;;;;10.48;0.90;;;11.10;88.40;;;;;;5055205;28;20024;-81
2022/03/17 09:03:33;;;;;;;11.73;1.08;;;11.10;88.50;;;;;;5055141;28;20025;-78
2022/03/17 09:06:00;;;;;;;9.55;1.08;;;11.10;88.00;;;;;;5055107;28;20365;-79
2022/03/17 09:08:29;;;;;;;10.15;0.80;;;11.20;87.90;;;;;;5055787;28;20420;-79
2022/03/17 09:10:56;;;;;;;10.05;1.35;;;11.30;87.70;;;;;;5055648;28;20583;-79
2022/03/17 09:13:25;;;;;;;11.60;1.10;;;11.40;87.30;;;;;;5055025;28;20025;-80
2022/03/17 09:15:53;;;;;;;7.05;1.23;;;11.40;87.10;;;;;;5055149;28;20066;-78
2022/03/17 09:18:20;;;;;;;13.88;1.70;;;11.40;86.70;;;;;;5054857;28;20089;-80
2022/03/17 09:20:47;;;;;;;9.32;1.30;;;11.40;86.10;;;;;;5054893;28;20113;-77
2022/03/17 09:23:12;;;;;;;8.45;0.93;;;11.40;86.70;;;;;;5055406;28;20546;-77
2022/03/17 09:25:38;;;;;;;14.20;1.48;;;11.40;86.10;;;;;;5054887;28;20025;-78
2022/03/17 09:28:04;;;;;;;12.25;1.00;;;11.40;85.70;;;;;;5054547;28;20079;-77
2022/03/17 09:30:30;;;;;;;7.75;0.98;;;11.40;86.40;;;;;;5055009;28;21472;-77
2022/03/17 09:32:58;;;;;;;8.48;0.85;;;11.40;85.60;;;;;;5054495;28;20106;-77
2022/03/17 09:35:25;;;;;;;9.27;1.77;;;11.40;85.80;;;;;;5054637;28;20025;-78
2022/03/17 09:37:50;;;;;;;11.50;1.00;;;11.40;86.10;;;;;;5054261;28;20025;-80
2022/03/17 09:40:17;;;;;;;10.68;1.23;;;11.40;86.10;;;;;;5054359;28;20391;-83
2022/03/17 09:42:43;;;;;;;7.80;1.08;;;11.40;86.00;;;;;;5054396;28;20025;-81
2022/03/17 09:45:09;;;;;;;9.48;0.98;;;11.40;85.90;;;;;;5054195;28;20372;-79
2022/03/17 09:47:40;;;;;;;10.38;1.17;;;11.40;85.50;;;;;;5054499;28;20108;-80
2022/03/17 09:50:08;;;;;;;6.47;0.70;;;11.50;85.30;;;;;;5055184;28;20040;-81
2022/03/17 09:52:42;;;;;;;14.98;1.33;;;11.50;85.50;;;;;;5053555;28;20075;-83
2022/03/17 09:55:10;;;;;;;10.70;1.23;;;11.50;85.00;;;;;;5054372;28;20025;-81
2022/03/17 09:57:37;;;;;;;9.45;1.65;;;11.50;84.80;;;;;;5053792;28;20082;-80
2022/03/17 10:00:04;;;;;;;12.35;1.45;;;11.40;84.80;;;;;;5055289;28;20029;-79
2022/03/17 10:02:30;;;;;;;8.82;1.25;;;11.40;84.40;;;;;;5055303;28;20059;-80
2022/03/17 10:04:56;;;;;;;7.53;1.10;;;11.40;84.80;;;;;;5055610;28;20028;-81
2022/03/17 10:07:25;;;;;;;24.27;2.10;;;11.40;85.00;;;;;;5055039;28;20091;-81
2022/03/17 10:09:50;;;;;;;9.05;1.30;;;11.40;85.00;;;;;;5055135;28;20069;-81
2022/03/17 10:12:20;;;;;;;13.43;1.30;;;11.40;84.60;;;;;;5055149;28;20060;-82
2022/03/17 10:14:51;;;;;;;11.25;1.17;;;11.40;85.00;;;;;;5055030;28;20501;-81
2022/03/17 10:17:33;;;;;;;13.65;1.70;;;11.40;85.30;;;;;;5055401;28;20100;-81
2022/03/17 10:20:16;;;;;;;14.73;1.33;;;11.40;85.40;;;;;;5055020;28;20472;-82
2022/03/17 10:22:43;;;;;;;;;;;11.40;85.60;;;;;;5060951;28;20433;-82
2022/03/17 10:25:12;;;;;;;11.65;0.98;;;11.40;84.80;;;;;;5061658;28;19905;-83
2022/03/17 10:27:45;;;;;;;7.70;0.70;;;11.40;83.40;;;;;;5054636;28;20464;-85
2022/03/17 10:30:12;;;;;;;;;;;11.30;83.70;;;;;;5055060;28;20067;-82
2022/03/17 10:32:37;;;;;;;5.00;0.60;;;11.40;83.60;;;;;;5054596;28;19914;-82
2022/03/17 10:35:04;;;;;;;7.30;0.60;;;11.40;83.00;;;;;;5054792;28;20024;-82
2022/03/17 10:37:36;;;;;;;7.47;0.70;;;11.50;82.10;;;;;;5054906;28;20082;-82
2022/03/17 10:40:07;;;;;;;7.03;0.82;;;11.60;81.50;;;;;;5054723;28;20033;-82
2022/03/17 10:42:34;;;;;;;9.63;0.98;;;11.70;81.30;;;;;;5054297;28;20096;-82
2022/03/17 10:45:05;;;;;;;15.50;1.00;;;11.80;81.40;;;;;;5053629;28;20025;-81
2022/03/17 10:47:33;;;;;;;7.07;0.88;;;11.80;81.10;;;;;;5052311;28;20029;-79
2022/03/17 10:50:06;;;;;;;10.32;0.90;;;11.90;80.40;;;;;;5053210;28;20051;-82
2022/03/17 10:52:56;;;;;;;11.88;1.40;;;11.90;80.20;;;;;;5053706;28;20021;-83
2022/03/17 10:55:29;;;;;;;7.13;1.08;;;11.90;80.00;;;;;;5053952;28;20127;-84
2022/03/17 10:57:58;;;;;;;9.43;0.93;;;11.90;80.30;;;;;;5053041;28;20099;-80
2022/03/17 11:00:28;;;;;;;14.35;1.40;;;11.90;80.50;;;;;;5053144;28;20138;-81
2022/03/17 11:02:59;;;;;;;12.50;1.52;;;12.00;79.90;;;;;;5052419;28;20021;-80
2022/03/17 11:05:27;;;;;;;8.40;1.20;;;12.00;79.40;;;;;;5052237;28;20041;-81
2022/03/17 11:07:54;;;;;;;10.43;1.27;;;12.00;79.70;;;;;;5052497;28;20033;-80
2022/03/17 11:10:24;;;;;;;7.32;0.90;;;12.10;79.90;;;;;;5053679;28;20476;-81
2022/03/17 11:12:50;;;;;;;9.77;1.58;;;12.20;80.30;;;;;;5052262;28;20075;-81
2022/03/17 11:15:25;;;;;;;14.02;1.50;;;12.30;80.10;;;;;;5051927;28;20025;-81
2022/03/17 11:17:51;;;;;;;8.27;1.17;;;12.30;79.90;;;;;;5049387;28;20037;-81
2022/03/17 11:20:20;;;;;;;9.13;1.27;;;12.40;79.40;;;;;;5052390;28;20093;-81
2022/03/17 11:23:03;;;;;;;7.28;1.48;;;12.50;78.40;;;;;;5052544;28;20035;-81
2022/03/17 11:25:29;;;;;;;;;;;12.50;77.80;;;;;;5052451;28;20021;-81
2022/03/17 11:28:00;;;;;;;7.80;1.30;;;12.40;76.70;;;;;;5052178;28;19970;-80
2022/03/17 11:30:43;;;;;;;11.00;1.45;;;12.30;77.90;;;;;;5053666;28;20112;-80
2022/03/17 11:33:21;;;;;;;;;;;12.20;77.40;;;;;;5053806;28;20032;-81
2022/03/17 11:35:59;;;;;;;8.18;1.27;;;12.10;78.30;;;;;;5053419;28;19905;-81
2022/03/17 11:38:39;;;;;;;7.57;1.40;;;12.20;78.60;;;;;;5053477;28;20033;-81
2022/03/17 11:41:08;;;;;;;8.63;1.20;;;12.30;78.10;;;;;;5053608;28;20059;-82
2022/03/17 11:43:47;;;;;;;8.75;1.00;;;12.30;77.10;;;;;;5053672;28;20032;-81
2022/03/17 11:46:23;;;;;;;11.60;1.23;;;12.40;77.10;;;;;;5052515;28;20029;-81
2022/03/17 11:48:51;;;;;;;9.57;1.08;;;12.50;77.00;;;;;;5048202;28;20116;-79
2022/03/17 11:51:18;;;;;;;8.13;1.27;;;12.60;77.30;;;;;;5048257;28;20037;-81
2022/03/17 11:53:49;;;;;;;9.20;1.10;;;12.80;76.50;;;;;;5047702;28;20025;-81
2022/03/17 11:56:33;;;;;;;6.35;0.90;;;12.90;74.90;;;;;;5052442;28;20468;-81
2022/03/17 11:58:58;;;;;;;3.78;0.68;;;13.00;74.00;;;;;;5051766;28;20468;-81
2022/03/17 12:01:27;;;;;;;8.18;1.45;;;13.00;71.90;;;;;;5051965;28;20025;-81
2022/03/17 12:04:04;;;;;;;7.32;1.08;;;13.10;71.00;;;;;;5048762;28;20388;-81
2022/03/17 12:06:38;;;;;;;5.63;0.70;;;13.10;70.90;;;;;;5051881;28;20021;-80
2022/03/17 12:09:11;;;;;;;7.80;1.27;;;13.20;70.30;;;;;;5051835;28;20128;-82
2022/03/17 12:11:47;;;;;;;6.25;0.90;;;13.30;70.50;;;;;;5051656;28;20072;-80
2022/03/17 12:14:22;;;;;;;5.93;0.90;;;13.30;70.10;;;;;;5051947;28;20099;-81
2022/03/17 12:17:08;;;;;;;8.73;0.75;;;13.40;69.50;;;;;;5051834;28;20021;-81
2022/03/17 12:19:39;;;;;;;6.53;0.95;;;13.50;68.10;;;;;;5052005;28;20536;-81
2022/03/17 12:22:12;;;;;;;5.78;0.70;;;13.50;66.40;;;;;;5052072;28;20375;-81
2022/03/17 12:25:04;;;;;;;6.03;0.93;;;13.40;67.50;;;;;;5051476;28;20029;-81
2022/03/17 12:27:34;;;;;;;9.68;1.35;;;13.40;68.00;;;;;;5051525;28;20044;-81
2022/03/17 12:30:11;;;;;;;7.20;0.70;;;13.50;66.60;;;;;;5049942;28;20037;-81
2022/03/17 12:32:45;;;;;;;5.80;0.93;;;13.50;65.80;;;;;;5051885;28;20049;-81
2022/03/17 12:35:12;;;;;;;6.75;1.38;;;13.60;65.30;;;;;;5051492;28;20029;-79
2022/03/17 12:37:39;;;;;;;3.67;0.68;;;13.70;64.80;;;;;;5051189;28;20029;-80
2022/03/17 12:40:07;;;;;;;9.52;1.00;;;13.70;64.50;;;;;;5051445;28;20025;-80
2022/03/17 12:42:44;;;;;;;3.17;0.65;;;13.80;64.50;;;;;;5050829;28;20032;-78
2022/03/17 12:45:15;;;;;;;5.40;0.77;;;14.00;63.90;;;;;;5050596;28;20028;-79
2022/03/17 12:47:46;;;;;;;6.68;0.80;;;14.00;64.60;;;;;;5051515;28;20041;-78
2022/03/17 12:50:14;;;;;;;6.82;0.90;;;14.10;64.70;;;;;;5051392;28;20044;-83
2022/03/17 12:52:42;;;;;;;7.13;1.13;;;14.20;63.00;;;;;;5048018;28;20083;-85
2022/03/17 12:55:10;;;;;;;5.80;0.95;;;14.30;62.70;;;;;;5051424;28;20059;-85
2022/03/17 12:57:40;;;;;;;4.25;0.60;;;14.50;62.30;;;;;;5051980;28;20032;-83